createdAt,value
2024-02-24T00:00:10.459Z,99602.44
2024-02-24T00:02:42.926Z,99572.69
2024-02-24T00:05:12.631Z,99567.59
2024-02-24T00:07:41.178Z,99598.63
2024-02-24T00:10:13.700Z,99576.47
2024-02-24T00:12:42.302Z,99608.09
2024-02-24T00:15:13.179Z,99578.06
2024-02-24T00:17:41.950Z,99551.75
2024-02-24T00:20:15.351Z,99589.44
2024-02-24T00:22:44.249Z,99574.34
2024-02-24T00:25:12.847Z,99581.22
2024-02-24T00:27:41.983Z,99604.75
2024-02-24T00:30:14.479Z,99602.41
2024-02-24T00:32:43.114Z,99587.53
2024-02-24T00:35:12.946Z,99589.84
2024-02-24T00:37:41.847Z,99588.72
2024-02-24T00:40:12.498Z,99597.66
2024-02-24T00:42:40.961Z,99605.59
2024-02-24T00:45:11.817Z,99602.56
2024-02-24T00:47:40.389Z,99608.00
2024-02-24T00:50:11.454Z,99591.94
2024-02-24T00:52:40.195Z,99608.69
2024-02-24T00:55:09.597Z,99599.03
2024-02-24T00:57:38.100Z,99599.19
2024-02-24T01:00:08.563Z,99516.72
2024-02-24T01:02:38.619Z,99588.47
2024-02-24T01:05:08.546Z,99600.50
2024-02-24T01:07:37.615Z,99604.75
2024-02-24T01:10:08.716Z,99587.88
2024-02-24T01:12:37.216Z,99590.78
2024-02-24T01:15:07.172Z,99576.28
2024-02-24T01:17:37.310Z,99598.44
2024-02-24T01:20:06.821Z,99600.38
2024-02-24T01:22:35.304Z,99582.81
2024-02-24T01:25:04.000Z,99596.81
2024-02-24T01:27:32.660Z,99557.72
2024-02-24T01:30:01.475Z,99601.09
2024-02-24T01:32:30.429Z,99596.63
2024-02-24T01:35:00.603Z,99573.09
2024-02-24T01:37:29.065Z,99586.81
2024-02-24T01:39:57.634Z,99584.44
2024-02-24T01:42:27.218Z,99591.22
2024-02-24T01:44:56.412Z,99600.69
2024-02-24T01:47:25.508Z,99582.13
2024-02-24T01:49:56.703Z,99618.81
2024-02-24T01:52:27.713Z,99617.00
2024-02-24T01:55:00.498Z,99620.47
2024-02-24T01:57:34.311Z,99608.16
2024-02-24T02:00:04.563Z,99628.66
2024-02-24T02:02:35.531Z,99614.25
2024-02-24T02:05:04.216Z,99616.75
2024-02-24T02:07:34.473Z,99608.88
2024-02-24T02:10:04.398Z,99618.84
2024-02-24T02:12:37.195Z,99610.94
2024-02-24T02:15:08.880Z,99636.41
2024-02-24T02:17:39.077Z,99639.88
2024-02-24T02:20:10.002Z,99624.22
2024-02-24T02:22:40.051Z,99634.41
2024-02-24T02:25:09.676Z,99640.31
2024-02-24T02:27:38.222Z,99637.13
2024-02-24T02:30:09.042Z,99645.75
2024-02-24T02:32:37.793Z,99614.44
2024-02-24T02:35:07.828Z,99641.13
2024-02-24T02:37:36.391Z,99633.00
2024-02-24T02:40:07.928Z,99647.63
2024-02-24T02:42:36.980Z,99619.22
2024-02-24T02:45:07.119Z,99637.16
2024-02-24T02:47:38.402Z,99618.97
2024-02-24T02:50:08.517Z,99627.38
2024-02-24T02:52:37.622Z,99631.56
2024-02-24T02:55:08.226Z,99640.94
2024-02-24T02:57:37.999Z,99627.53
2024-02-24T03:00:08.439Z,99627.22
2024-02-24T03:02:36.989Z,99600.69
2024-02-24T03:05:06.011Z,99638.56
2024-02-24T03:07:35.673Z,99648.31
2024-02-24T03:10:07.185Z,99644.50
2024-02-24T03:12:36.033Z,99621.34
2024-02-24T03:15:05.810Z,99621.50
2024-02-24T03:17:34.548Z,99633.88
2024-02-24T03:20:05.085Z,99644.38
2024-02-24T03:22:34.985Z,99643.25
2024-02-24T03:25:03.731Z,99606.22
2024-02-24T03:27:33.710Z,99606.56
2024-02-24T03:30:02.769Z,99634.94
2024-02-24T03:32:31.632Z,99640.00
2024-02-24T03:35:00.827Z,99616.09
2024-02-24T03:37:29.370Z,99629.91
2024-02-24T03:39:56.803Z,99639.75
2024-02-24T03:42:25.654Z,99604.72
2024-02-24T03:44:57.086Z,99642.97
2024-02-24T03:47:25.913Z,99645.69
2024-02-24T03:49:54.565Z,99646.66
2024-02-24T03:52:23.002Z,99651.78
2024-02-24T03:54:53.901Z,99634.06
2024-02-24T03:57:22.310Z,99647.78
2024-02-24T03:59:50.974Z,99601.06
2024-02-24T04:02:20.900Z,99648.31
2024-02-24T04:04:50.040Z,99602.22
2024-02-24T04:07:20.442Z,99631.41
2024-02-24T04:09:48.948Z,99647.00
2024-02-24T04:12:17.890Z,99610.56
2024-02-24T04:14:46.928Z,99648.81
2024-02-24T04:17:15.433Z,99643.63
2024-02-24T04:19:45.554Z,99649.69
2024-02-24T04:22:14.466Z,99613.75
2024-02-24T04:24:43.184Z,99657.06
2024-02-24T04:27:11.638Z,99653.66
2024-02-24T04:29:40.245Z,99634.03
2024-02-24T04:32:08.926Z,99662.69
2024-02-24T04:34:39.643Z,99668.97
2024-02-24T04:37:09.783Z,99668.84
2024-02-24T04:39:38.445Z,99636.16
2024-02-24T04:42:09.285Z,99676.88
2024-02-24T04:44:37.794Z,99674.78
2024-02-24T04:47:07.041Z,99674.63
2024-02-24T04:49:35.626Z,99669.13
2024-02-24T04:52:05.838Z,99688.13
2024-02-24T04:54:35.989Z,99695.25
2024-02-24T04:57:05.414Z,99683.31
2024-02-24T04:59:33.976Z,99705.75
2024-02-24T05:02:03.225Z,99713.72
2024-02-24T05:04:31.846Z,99711.28
2024-02-24T05:07:03.225Z,99703.91
2024-02-24T05:09:32.100Z,99713.84
2024-02-24T05:12:02.143Z,99700.78
2024-02-24T05:14:30.917Z,99720.75
2024-02-24T05:16:59.485Z,99722.38
2024-02-24T05:19:28.374Z,99724.19
2024-02-24T05:21:58.040Z,99687.09
2024-02-24T05:24:26.626Z,99729.38
2024-02-24T05:26:55.259Z,99717.88
2024-02-24T05:29:25.248Z,99727.97
2024-02-24T05:31:53.870Z,99707.19
2024-02-24T05:34:22.764Z,99734.03
2024-02-24T05:36:51.660Z,99730.72
2024-02-24T05:39:20.293Z,99703.78
2024-02-24T05:41:49.474Z,99724.31
2024-02-24T05:44:18.542Z,99740.50
2024-02-24T05:46:48.658Z,99747.59
2024-02-24T05:49:17.721Z,99708.09
2024-02-24T05:51:47.074Z,99714.00
2024-02-24T05:54:15.646Z,99719.13
2024-02-24T05:56:44.157Z,99757.19
2024-02-24T05:59:12.873Z,99717.19
2024-02-24T06:01:41.280Z,99753.53
2024-02-24T06:04:11.292Z,99732.50
2024-02-24T06:06:40.194Z,99758.56
2024-02-24T06:09:08.902Z,99758.25
2024-02-24T06:11:37.471Z,99742.63
2024-02-24T06:14:06.143Z,99749.03
2024-02-24T06:16:34.852Z,99754.50
2024-02-24T06:19:03.563Z,99772.69
2024-02-24T06:21:34.079Z,99764.00
2024-02-24T06:24:02.693Z,99769.81
2024-02-24T06:26:31.983Z,99751.69
2024-02-24T06:29:00.708Z,99775.94
2024-02-24T06:31:29.131Z,99770.94
2024-02-24T06:33:57.800Z,99750.19
2024-02-24T06:36:26.371Z,99750.25
2024-02-24T06:38:56.519Z,99769.66
2024-02-24T06:41:26.050Z,99711.13
2024-02-24T06:43:54.739Z,99733.25
2024-02-24T06:46:26.446Z,99798.06
2024-02-24T06:48:55.569Z,99791.28
2024-02-24T06:51:24.294Z,99749.88
2024-02-24T06:53:55.852Z,99776.72
2024-02-24T06:56:25.940Z,99793.69
2024-02-24T06:58:54.597Z,99793.84
2024-02-24T07:01:24.450Z,99779.50
2024-02-24T07:03:53.240Z,99771.78
2024-02-24T07:06:21.777Z,99811.53
2024-02-24T07:08:52.882Z,99797.31
2024-02-24T07:11:22.000Z,99822.09
2024-02-24T07:13:52.250Z,99804.03
2024-02-24T07:16:20.812Z,99822.19
2024-02-24T07:18:49.383Z,99844.66
2024-02-24T07:21:18.644Z,99830.72
2024-02-24T07:23:48.410Z,99841.25
2024-02-24T07:26:17.163Z,99828.25
2024-02-24T07:28:45.996Z,99823.38
2024-02-24T07:31:16.540Z,99834.06
2024-02-24T07:33:45.265Z,99844.59
2024-02-24T07:36:14.228Z,99851.88
2024-02-24T07:38:43.037Z,99857.38
2024-02-24T07:41:11.609Z,99869.19
2024-02-24T07:43:40.129Z,99796.53
2024-02-24T07:46:08.887Z,99868.84
2024-02-24T07:48:39.776Z,99794.59
2024-02-24T07:51:08.597Z,99781.00
2024-02-24T07:53:37.753Z,99878.59
2024-02-24T07:56:07.436Z,99884.88
2024-02-24T07:58:36.246Z,99867.09
2024-02-24T08:01:05.053Z,99895.25
2024-02-24T08:03:34.656Z,99894.38
2024-02-24T08:06:07.847Z,99826.13
2024-02-24T08:08:38.129Z,99872.22
2024-02-24T08:11:07.807Z,99909.16
2024-02-24T08:13:42.962Z,99894.41
2024-02-24T08:16:11.934Z,99903.91
2024-02-24T08:18:41.556Z,99897.31
2024-02-24T08:21:11.788Z,99897.06
2024-02-24T08:23:40.523Z,99875.44
2024-02-24T08:26:09.286Z,99894.88
2024-02-24T08:28:38.027Z,99816.25
2024-02-24T08:31:07.472Z,99867.91
2024-02-24T08:33:36.211Z,99850.63
2024-02-24T08:36:05.215Z,99927.75
2024-02-24T08:38:37.579Z,99932.47
2024-02-24T08:41:07.852Z,99901.63
2024-02-24T08:43:36.500Z,99916.69
2024-02-24T08:46:05.293Z,99935.09
2024-02-24T08:48:33.813Z,99937.69
2024-02-24T08:51:02.513Z,99944.38
2024-02-24T08:53:31.802Z,99934.31
2024-02-24T08:56:03.930Z,99947.75
2024-02-24T08:58:32.856Z,99955.41
2024-02-24T09:01:01.925Z,99940.25
2024-02-24T09:03:30.472Z,99939.38
2024-02-24T09:05:59.766Z,99949.34
2024-02-24T09:08:30.425Z,99953.38
2024-02-24T09:10:59.119Z,99959.91
2024-02-24T09:13:29.155Z,99961.41
2024-02-24T09:15:57.668Z,99973.50
2024-02-24T09:18:27.938Z,99954.16
2024-02-24T09:20:58.198Z,99938.66
2024-02-24T09:23:26.887Z,99967.59
2024-02-24T09:25:55.508Z,99944.97
2024-02-24T09:28:24.094Z,99923.34
2024-02-24T09:30:54.250Z,99967.13
2024-02-24T09:33:23.166Z,99973.88
2024-02-24T09:35:51.936Z,99971.00
2024-02-24T09:38:20.541Z,99984.78
2024-02-24T09:40:51.638Z,99973.50
2024-02-24T09:43:20.916Z,99968.19
2024-02-24T09:45:50.498Z,99984.38
2024-02-24T09:48:21.383Z,99940.91
2024-02-24T09:50:50.129Z,99985.00
2024-02-24T09:53:18.999Z,100005.81
2024-02-24T09:55:50.206Z,99990.59
2024-02-24T09:58:19.796Z,99948.59
2024-02-24T10:00:52.105Z,99971.66
2024-02-24T10:03:23.412Z,99976.50
2024-02-24T10:05:52.346Z,100021.00
2024-02-24T10:08:21.048Z,100003.81
2024-02-24T10:10:49.570Z,99988.81
2024-02-24T10:13:20.658Z,100027.69
2024-02-24T10:15:49.665Z,100016.47
2024-02-24T10:18:23.205Z,100033.69
2024-02-24T10:20:56.234Z,99990.59
2024-02-24T10:23:24.976Z,100034.94
2024-02-24T10:25:54.915Z,100048.50
2024-02-24T10:28:23.973Z,100023.72
2024-02-24T10:30:52.554Z,100035.78
2024-02-24T10:33:24.248Z,100019.41
2024-02-24T10:35:56.034Z,100053.06
2024-02-24T10:38:34.555Z,100033.81
2024-02-24T10:41:09.363Z,100047.97
2024-02-24T10:43:38.720Z,100065.31
2024-02-24T10:46:07.430Z,100066.88
2024-02-24T10:48:37.527Z,100072.56
2024-02-24T10:51:06.606Z,100077.72
2024-02-24T10:53:36.750Z,100048.81
2024-02-24T10:56:06.229Z,100084.63
2024-02-24T10:58:36.415Z,100069.72
2024-02-24T11:01:06.725Z,100008.22
2024-02-24T11:03:37.053Z,100088.00
2024-02-24T11:06:06.902Z,100068.75
2024-02-24T11:08:42.480Z,100047.19
2024-02-24T11:11:13.220Z,100072.31
2024-02-24T11:13:59.478Z,100086.00
2024-02-24T11:16:37.336Z,100083.88
2024-02-24T11:19:13.099Z,100071.13
2024-02-24T11:22:01.939Z,100055.75
2024-02-24T11:24:35.869Z,100082.31
2024-02-24T11:27:08.282Z,100067.56
2024-02-24T11:29:38.005Z,100090.91
2024-02-24T11:32:09.387Z,100072.25
2024-02-24T11:34:45.054Z,100082.09
2024-02-24T11:37:18.388Z,100092.16
2024-02-24T11:39:48.921Z,100107.91
2024-02-24T11:42:17.800Z,100090.66
2024-02-24T11:44:48.427Z,100091.56
2024-02-24T11:47:20.849Z,100080.22
2024-02-24T11:49:51.107Z,100081.13
2024-02-24T11:52:19.952Z,100119.41
2024-02-24T11:54:49.136Z,100081.72
2024-02-24T11:57:19.619Z,100089.66
2024-02-24T11:59:51.996Z,100095.50
2024-02-24T12:02:21.992Z,100107.16
2024-02-24T12:04:52.813Z,100117.34
2024-02-24T12:07:23.495Z,100086.41
2024-02-24T12:09:54.120Z,100127.13
2024-02-24T12:12:23.503Z,100118.38
2024-02-24T12:14:52.293Z,100125.19
2024-02-24T12:17:21.734Z,100125.31
2024-02-24T12:19:52.184Z,100113.41
2024-02-24T12:22:20.766Z,100111.34
2024-02-24T12:24:49.271Z,100107.50
2024-02-24T12:27:18.029Z,100127.34
2024-02-24T12:29:47.006Z,100131.47
2024-02-24T12:32:16.233Z,100139.72
2024-02-24T12:34:45.457Z,100109.06
2024-02-24T12:37:16.601Z,100117.91
2024-02-24T12:39:46.490Z,100117.00
2024-02-24T12:42:15.033Z,100113.72
2024-02-24T12:44:43.638Z,100136.38
2024-02-24T12:47:14.334Z,100130.56
2024-02-24T12:49:45.675Z,100117.78
2024-02-24T12:52:15.912Z,100112.75
2024-02-24T12:54:44.561Z,100102.91
2024-02-24T12:57:13.418Z,100128.56
2024-02-24T12:59:42.200Z,100119.50
2024-02-24T13:02:10.770Z,100092.13
2024-02-24T13:04:39.323Z,100133.66
2024-02-24T13:07:07.820Z,100130.00
2024-02-24T13:09:37.745Z,100133.94
2024-02-24T13:12:08.017Z,100130.75
2024-02-24T13:14:37.161Z,100116.16
2024-02-24T13:17:06.089Z,100146.66
2024-02-24T13:19:35.339Z,100154.03
2024-02-24T13:22:04.371Z,100143.34
2024-02-24T13:24:32.866Z,100161.44
2024-02-24T13:27:03.378Z,100135.38
2024-02-24T13:29:32.049Z,100155.00
2024-02-24T13:32:00.721Z,100144.56
2024-02-24T13:34:29.175Z,100044.41
2024-02-24T13:36:57.934Z,100154.03
2024-02-24T13:39:26.833Z,100130.25
2024-02-24T13:41:55.585Z,100146.50
2024-02-24T13:44:25.937Z,100077.03
2024-02-24T13:46:54.449Z,100152.72
2024-02-24T13:49:25.675Z,100147.44
2024-02-24T13:51:54.338Z,100155.53
2024-02-24T13:54:24.127Z,100166.41
2024-02-24T13:56:54.982Z,100156.59
2024-02-24T13:59:23.657Z,100161.09
2024-02-24T14:01:56.028Z,100158.03
2024-02-24T14:04:24.479Z,100142.38
2024-02-24T14:06:53.239Z,100155.72
2024-02-24T14:09:21.858Z,100161.19
2024-02-24T14:11:50.756Z,100166.22
2024-02-24T14:14:19.534Z,100156.13
2024-02-24T14:16:48.398Z,100169.94
2024-02-24T14:19:21.816Z,100163.53
2024-02-24T14:21:52.386Z,100182.41
2024-02-24T14:24:21.026Z,100183.25
2024-02-24T14:26:49.638Z,100192.00
2024-02-24T14:29:18.375Z,100192.59
2024-02-24T14:31:46.924Z,100171.53
2024-02-24T14:34:15.574Z,100170.50
2024-02-24T14:36:46.069Z,100162.25
2024-02-24T14:39:14.837Z,100211.53
2024-02-24T14:41:43.504Z,100198.47
2024-02-24T14:44:22.398Z,100177.06
2024-02-24T14:46:58.615Z,100192.78
2024-02-24T14:49:27.452Z,100189.84
2024-02-24T14:51:57.044Z,100195.34
2024-02-24T14:54:26.154Z,100137.97
2024-02-24T14:56:55.212Z,100181.28
2024-02-24T14:59:25.156Z,100204.03
2024-02-24T15:01:54.576Z,100218.56
2024-02-24T15:04:25.350Z,100206.75
2024-02-24T15:06:54.442Z,100211.19
2024-02-24T15:09:23.088Z,100200.25
2024-02-24T15:11:52.090Z,100211.84
2024-02-24T15:14:21.012Z,100212.13
2024-02-24T15:16:51.845Z,100213.72
2024-02-24T15:19:21.699Z,100176.97
2024-02-24T15:21:50.745Z,100218.06
2024-02-24T15:24:20.807Z,100214.13
2024-02-24T15:26:49.702Z,100215.00
2024-02-24T15:29:18.617Z,100169.25
2024-02-24T15:31:47.329Z,100202.63
2024-02-24T15:34:18.106Z,100206.84
2024-02-24T15:36:46.694Z,100214.50
2024-02-24T15:39:15.214Z,100204.19
2024-02-24T15:41:48.228Z,100181.47
2024-02-24T15:44:16.890Z,100198.19
2024-02-24T15:46:47.768Z,100185.38
2024-02-24T15:49:17.821Z,100204.66
2024-02-24T15:51:46.740Z,100215.09
2024-02-24T15:54:15.847Z,100181.25
2024-02-24T15:56:44.407Z,100190.97
2024-02-24T15:59:13.163Z,100212.50
2024-02-24T16:01:41.911Z,100218.56
2024-02-24T16:04:10.621Z,100220.69
2024-02-24T16:06:40.637Z,100199.72
2024-02-24T16:09:10.686Z,100184.16
2024-02-24T16:11:39.311Z,100227.59
2024-02-24T16:14:08.383Z,100227.63
2024-02-24T16:16:37.109Z,100226.69
2024-02-24T16:19:06.811Z,100236.69
2024-02-24T16:21:35.612Z,100236.97
2024-02-24T16:24:06.576Z,100241.31
2024-02-24T16:26:35.399Z,100237.63
2024-02-24T16:29:04.063Z,100240.28
2024-02-24T16:31:32.712Z,100239.13
2024-02-24T16:34:02.617Z,100213.22
2024-02-24T16:36:33.131Z,100230.91
2024-02-24T16:39:05.739Z,100247.72
2024-02-24T16:41:36.478Z,100228.47
2024-02-24T16:44:08.581Z,100244.09
2024-02-24T16:46:44.268Z,100223.13
2024-02-24T16:49:14.117Z,100216.06
2024-02-24T16:51:43.587Z,100248.81
2024-02-24T16:54:13.121Z,100240.81
2024-02-24T16:56:43.642Z,100241.78
2024-02-24T16:59:12.851Z,100218.34
2024-02-24T17:01:41.700Z,100156.31
2024-02-24T17:04:10.962Z,100222.38
2024-02-24T17:06:41.095Z,100254.50
2024-02-24T17:09:11.644Z,100241.50
2024-02-24T17:11:43.031Z,100254.50
2024-02-24T17:14:11.770Z,100263.44
2024-02-24T17:16:40.363Z,100263.28
2024-02-24T17:19:09.360Z,100268.50
2024-02-24T17:21:38.273Z,100233.69
2024-02-24T17:24:07.497Z,100261.13
2024-02-24T17:26:36.232Z,100246.91
2024-02-24T17:29:06.334Z,100236.19
2024-02-24T17:31:34.816Z,100258.84
2024-02-24T17:34:03.902Z,100260.63
2024-02-24T17:36:39.795Z,100273.25
2024-02-24T17:39:08.773Z,100248.09
2024-02-24T17:41:39.372Z,100253.78
2024-02-24T17:44:09.426Z,100254.75
2024-02-24T17:46:39.299Z,100273.97
2024-02-24T17:49:08.294Z,100255.81
2024-02-24T17:51:36.985Z,100287.53
2024-02-24T17:54:05.865Z,100286.09
2024-02-24T17:56:36.160Z,100280.97
2024-02-24T17:59:04.747Z,100237.81
2024-02-24T18:01:34.677Z,100278.03
2024-02-24T18:04:04.000Z,100287.19
2024-02-24T18:06:33.277Z,100273.25
2024-02-24T18:09:02.313Z,100269.63
2024-02-24T18:11:32.313Z,100269.34
2024-02-24T18:14:01.097Z,100273.41
2024-02-24T18:16:29.676Z,100285.78
2024-02-24T18:19:00.102Z,100149.53
2024-02-24T18:21:29.019Z,100286.56
2024-02-24T18:23:57.809Z,100285.31
2024-02-24T18:26:26.616Z,100284.59
2024-02-24T18:29:00.851Z,100242.63
2024-02-24T18:31:29.985Z,100265.13
2024-02-24T18:34:00.956Z,100250.22
2024-02-24T18:36:30.015Z,100276.50
2024-02-24T18:38:58.774Z,100279.44
2024-02-24T18:41:27.427Z,100281.69
2024-02-24T18:43:55.823Z,100267.78
2024-02-24T18:46:24.523Z,100283.22
2024-02-24T18:48:53.449Z,100281.38
2024-02-24T18:51:23.900Z,100283.06
2024-02-24T18:53:52.941Z,100250.69
2024-02-24T18:56:22.143Z,100280.53
2024-02-24T18:58:50.930Z,100281.91
2024-02-24T19:01:19.557Z,100267.56
2024-02-24T19:03:48.403Z,100275.78
2024-02-24T19:06:17.801Z,100280.63
2024-02-24T19:08:48.488Z,100282.19
2024-02-24T19:11:17.075Z,100254.66
2024-02-24T19:13:45.807Z,100236.13
2024-02-24T19:16:17.494Z,100277.69
2024-02-24T19:18:46.231Z,100280.53
2024-02-24T19:21:16.038Z,100276.91
2024-02-24T19:23:44.591Z,100251.97
2024-02-24T19:26:17.477Z,100276.16
2024-02-24T19:28:46.062Z,100272.59
2024-02-24T19:31:14.203Z,100264.31
2024-02-24T19:33:43.222Z,100239.47
2024-02-24T19:36:11.954Z,100249.00
2024-02-24T19:38:41.207Z,100262.44
2024-02-24T19:41:10.785Z,100216.47
2024-02-24T19:43:40.702Z,100260.72
2024-02-24T19:46:10.102Z,100251.03
2024-02-24T19:48:38.689Z,100284.84
2024-02-24T19:51:13.703Z,100269.94
2024-02-24T19:53:42.569Z,100272.13
2024-02-24T19:56:11.601Z,100248.75
2024-02-24T19:58:47.866Z,100263.66
2024-02-24T20:01:23.323Z,100266.53
2024-02-24T20:03:52.005Z,100243.72
2024-02-24T20:06:21.085Z,100263.69
2024-02-24T20:08:51.806Z,100269.06
2024-02-24T20:11:20.365Z,100268.69
2024-02-24T20:13:50.544Z,100247.00
2024-02-24T20:16:19.054Z,100230.31
2024-02-24T20:18:48.006Z,100256.56
2024-02-24T20:21:17.624Z,100267.94
2024-02-24T20:23:47.450Z,100265.59
2024-02-24T20:26:16.509Z,100258.88
2024-02-24T20:28:45.710Z,100253.75
2024-02-24T20:31:16.416Z,100226.25
2024-02-24T20:33:53.479Z,100238.03
2024-02-24T20:36:28.973Z,100243.81
2024-02-24T20:39:00.118Z,100244.59
2024-02-24T20:41:30.397Z,100239.03
2024-02-24T20:44:01.066Z,100241.03
2024-02-24T20:46:30.985Z,100243.09
2024-02-24T20:48:59.699Z,100251.03
2024-02-24T20:51:28.273Z,100247.19
2024-02-24T20:53:56.759Z,100228.03
2024-02-24T20:56:25.486Z,100250.31
2024-02-24T20:58:54.045Z,100244.88
2024-02-24T21:01:25.047Z,100248.63
2024-02-24T21:03:57.391Z,100232.06
2024-02-24T21:06:26.709Z,100258.22
2024-02-24T21:08:55.660Z,100223.56
2024-02-24T21:11:24.198Z,100228.75
2024-02-24T21:13:53.184Z,100254.34
2024-02-24T21:16:21.739Z,100251.28
2024-02-24T21:18:52.497Z,100181.72
2024-02-24T21:21:22.594Z,100236.53
2024-02-24T21:23:55.231Z,100254.06
2024-02-24T21:26:24.699Z,100227.31
2024-02-24T21:28:53.947Z,100200.31
2024-02-24T21:31:23.316Z,100251.81
2024-02-24T21:33:52.306Z,100248.88
2024-02-24T21:36:22.553Z,100255.28
2024-02-24T21:38:51.727Z,100225.38
2024-02-24T21:41:21.721Z,100225.38
2024-02-24T21:43:50.931Z,100130.66
2024-02-24T21:46:19.663Z,100240.84
2024-02-24T21:48:49.496Z,100217.88
2024-02-24T21:51:18.253Z,100253.47
2024-02-24T21:53:48.214Z,100253.06
2024-02-24T21:56:16.831Z,100255.25
2024-02-24T21:58:45.355Z,100233.81
2024-02-24T22:01:18.158Z,100228.09
2024-02-24T22:03:47.021Z,100233.53
2024-02-24T22:06:15.907Z,100217.06
2024-02-24T22:08:44.711Z,100228.00
2024-02-24T22:11:14.860Z,100232.28
2024-02-24T22:13:45.418Z,100214.63
2024-02-24T22:16:15.698Z,100181.75
2024-02-24T22:18:45.515Z,100213.75
2024-02-24T22:21:16.268Z,100217.78
2024-02-24T22:23:44.862Z,100182.25
2024-02-24T22:26:15.223Z,100175.84
2024-02-24T22:28:44.160Z,100209.63
2024-02-24T22:31:14.269Z,100176.56
2024-02-24T22:33:43.096Z,100179.81
2024-02-24T22:36:12.829Z,100203.84
2024-02-24T22:38:41.603Z,100206.88
2024-02-24T22:41:10.543Z,100162.97
2024-02-24T22:43:40.893Z,100194.19
2024-02-24T22:46:10.607Z,100193.81
2024-02-24T22:48:40.927Z,100190.44
2024-02-24T22:51:09.823Z,100173.47
2024-02-24T22:53:38.511Z,100184.63
2024-02-24T22:56:09.460Z,100169.63
2024-02-24T22:58:39.641Z,100178.09
2024-02-24T23:01:08.345Z,100178.78
2024-02-24T23:03:36.997Z,100181.84
2024-02-24T23:06:06.462Z,100160.69
2024-02-24T23:08:35.577Z,100180.25
2024-02-24T23:11:05.605Z,100087.97
2024-02-24T23:13:34.283Z,100167.91
2024-02-24T23:16:06.468Z,100164.59
2024-02-24T23:18:35.386Z,100170.59
2024-02-24T23:21:03.945Z,100165.28
2024-02-24T23:23:32.927Z,100180.44
2024-02-24T23:26:01.946Z,100161.41
2024-02-24T23:28:30.445Z,100174.59
2024-02-24T23:30:59.693Z,100149.84
2024-02-24T23:33:29.904Z,100162.66
2024-02-24T23:35:58.569Z,100177.81
2024-02-24T23:38:27.107Z,100169.50
2024-02-24T23:40:55.859Z,100162.13
2024-02-24T23:43:24.630Z,100129.31
2024-02-24T23:45:53.225Z,100174.31
2024-02-24T23:48:21.819Z,100179.09
2024-02-24T23:50:51.890Z,100180.78
2024-02-24T23:53:20.723Z,100168.28
2024-02-24T23:55:52.563Z,100177.72
2024-02-24T23:58:21.444Z,100167.59
